createdAt,value
2023-12-11T00:00:43.501Z,97412.60
2023-12-11T00:03:31.630Z,97413.80
2023-12-11T00:05:59.919Z,97407.00
2023-12-11T00:08:28.090Z,97399.60
2023-12-11T00:10:56.308Z,97395.20
2023-12-11T00:13:24.498Z,97401.00
2023-12-11T00:15:52.618Z,97400.60
2023-12-11T00:18:20.899Z,97411.40
2023-12-11T00:20:48.987Z,97412.20
2023-12-11T00:23:17.197Z,97412.20
2023-12-11T00:25:47.284Z,97410.00
2023-12-11T00:28:15.486Z,97405.60
2023-12-11T00:30:43.662Z,97409.20
2023-12-11T00:33:11.934Z,97426.80
2023-12-11T00:35:40.084Z,97424.60
2023-12-11T00:38:08.139Z,97420.40
2023-12-11T00:40:36.188Z,97425.80
2023-12-11T00:43:04.368Z,97435.80
2023-12-11T00:45:32.563Z,97436.40
2023-12-11T00:48:00.766Z,97437.80
2023-12-11T00:50:28.847Z,97448.00
2023-12-11T00:52:56.918Z,97434.40
2023-12-11T00:55:25.014Z,97439.60
2023-12-11T00:57:53.199Z,97442.20
2023-12-11T01:00:21.881Z,97445.00
2023-12-11T01:02:50.058Z,97433.40
2023-12-11T01:05:19.025Z,97437.00
2023-12-11T01:07:47.530Z,97437.80
2023-12-11T01:10:15.629Z,97442.00
2023-12-11T01:12:44.213Z,97443.80
2023-12-11T01:15:12.310Z,97439.80
2023-12-11T01:17:41.274Z,97436.00
2023-12-11T01:20:10.843Z,97433.60
2023-12-11T01:22:39.075Z,97433.00
2023-12-11T01:25:10.143Z,97443.00
2023-12-11T01:27:38.497Z,97437.00
2023-12-11T01:30:07.781Z,97421.80
2023-12-11T01:32:35.843Z,97414.60
2023-12-11T01:35:04.066Z,97407.20
2023-12-11T01:37:32.581Z,97403.00
2023-12-11T01:40:00.936Z,97398.00
2023-12-11T01:42:29.248Z,97404.80
2023-12-11T01:44:57.504Z,97403.40
2023-12-11T01:47:25.784Z,97399.60
2023-12-11T01:49:53.944Z,97393.20
2023-12-11T01:52:22.208Z,97381.00
2023-12-11T01:54:50.342Z,97382.40
2023-12-11T01:57:18.401Z,97378.40
2023-12-11T01:59:49.230Z,97375.40
2023-12-11T02:02:21.359Z,97372.40
2023-12-11T02:04:55.441Z,97378.40
2023-12-11T02:07:23.677Z,97371.20
2023-12-11T02:09:51.799Z,97363.00
2023-12-11T02:12:19.966Z,97358.60
2023-12-11T02:14:48.058Z,97349.20
2023-12-11T02:17:16.198Z,97344.60
2023-12-11T02:19:44.370Z,97345.60
2023-12-11T02:22:12.790Z,97343.00
2023-12-11T02:24:44.579Z,97343.00
2023-12-11T02:27:12.825Z,97347.20
2023-12-11T02:29:41.041Z,97349.20
2023-12-11T02:32:09.106Z,97347.60
2023-12-11T02:34:37.466Z,97345.60
2023-12-11T02:37:05.652Z,97345.80
2023-12-11T02:39:33.944Z,97348.80
2023-12-11T02:42:01.982Z,97353.00
2023-12-11T02:44:30.559Z,97362.20
2023-12-11T02:46:58.467Z,97368.80
2023-12-11T02:49:26.830Z,97364.40
2023-12-11T02:51:55.032Z,97356.80
2023-12-11T02:54:23.029Z,97360.40
2023-12-11T02:56:51.008Z,97358.60
2023-12-11T02:59:19.126Z,97363.40
2023-12-11T03:01:47.253Z,97356.00
2023-12-11T03:04:15.514Z,97357.00
2023-12-11T03:06:43.663Z,97357.80
2023-12-11T03:09:12.004Z,97361.80
2023-12-11T03:11:40.142Z,97369.40
2023-12-11T03:14:08.372Z,97373.00
2023-12-11T03:16:36.450Z,97375.80
2023-12-11T03:19:04.830Z,97377.00
2023-12-11T03:21:33.228Z,97375.80
2023-12-11T03:24:01.452Z,97375.40
2023-12-11T03:26:29.438Z,97371.20
2023-12-11T03:28:57.678Z,97370.80
2023-12-11T03:31:25.963Z,97374.40
2023-12-11T03:33:54.251Z,97376.80
2023-12-11T03:36:22.518Z,97383.00
2023-12-11T03:38:50.641Z,97385.60
2023-12-11T03:41:18.866Z,97385.60
2023-12-11T03:43:47.075Z,97380.80
2023-12-11T03:46:15.217Z,97386.20
2023-12-11T03:48:43.543Z,97382.60
2023-12-11T03:51:12.129Z,97383.20
2023-12-11T03:53:40.170Z,97387.80
2023-12-11T03:56:08.793Z,97391.60
2023-12-11T03:58:36.955Z,97396.40
2023-12-11T04:01:05.143Z,97395.80
2023-12-11T04:03:34.003Z,97389.60
2023-12-11T04:06:02.176Z,97385.80
2023-12-11T04:08:30.446Z,97383.80
2023-12-11T04:10:58.688Z,97389.80
2023-12-11T04:13:26.953Z,97395.40
2023-12-11T04:15:55.138Z,97391.60
2023-12-11T04:18:23.362Z,97395.00
2023-12-11T04:20:51.511Z,97390.40
2023-12-11T04:23:19.543Z,97390.20
2023-12-11T04:25:47.792Z,97396.00
2023-12-11T04:28:16.023Z,97395.60
2023-12-11T04:30:44.701Z,97403.80
2023-12-11T04:33:13.184Z,97404.80
2023-12-11T04:35:41.361Z,97405.20
2023-12-11T04:38:09.298Z,97406.20
2023-12-11T04:40:37.368Z,97402.80
2023-12-11T04:43:05.712Z,97392.80
2023-12-11T04:45:33.881Z,97390.20
2023-12-11T04:48:02.110Z,97400.00
2023-12-11T04:50:30.267Z,97410.60
2023-12-11T04:52:58.300Z,97404.60
2023-12-11T04:55:26.678Z,97406.00
2023-12-11T04:57:54.960Z,97416.20
2023-12-11T05:00:23.115Z,97413.40
2023-12-11T05:02:51.434Z,97407.40
2023-12-11T05:05:19.911Z,97403.60
2023-12-11T05:07:48.206Z,97395.60
2023-12-11T05:10:16.595Z,97396.20
2023-12-11T05:12:44.622Z,97397.80
2023-12-11T05:15:12.616Z,97395.40
2023-12-11T05:17:40.731Z,97400.20
2023-12-11T05:20:09.698Z,97404.20
2023-12-11T05:22:37.956Z,97399.40
2023-12-11T05:25:06.976Z,97403.20
2023-12-11T05:27:35.295Z,97392.40
2023-12-11T05:30:03.925Z,97389.20
2023-12-11T05:32:32.061Z,97389.60
2023-12-11T05:35:00.249Z,97391.60
2023-12-11T05:37:28.769Z,97400.80
2023-12-11T05:40:16.977Z,97404.00
2023-12-11T05:42:45.249Z,97408.60
2023-12-11T05:45:13.697Z,97410.80
2023-12-11T05:47:41.758Z,97408.20
2023-12-11T05:50:10.887Z,97418.40
2023-12-11T05:52:39.057Z,97425.60
2023-12-11T05:55:07.487Z,97427.40
2023-12-11T05:57:35.733Z,97427.60
2023-12-11T06:00:04.998Z,97426.20
2023-12-11T06:02:33.565Z,97422.20
2023-12-11T06:05:01.945Z,97417.40
2023-12-11T06:07:30.681Z,97416.60
2023-12-11T06:09:58.972Z,97421.60
2023-12-11T06:12:27.014Z,97421.60
2023-12-11T06:14:55.118Z,97424.40
2023-12-11T06:17:23.233Z,97426.20
2023-12-11T06:19:52.308Z,97425.60
2023-12-11T06:22:20.551Z,97425.80
2023-12-11T06:24:48.641Z,97427.20
2023-12-11T06:27:17.101Z,97441.00
2023-12-11T06:29:45.159Z,97439.60
2023-12-11T06:32:13.288Z,97442.00
2023-12-11T06:34:41.442Z,97444.60
2023-12-11T06:37:09.670Z,97445.80
2023-12-11T06:39:38.338Z,97448.40
2023-12-11T06:42:06.627Z,97456.60
2023-12-11T06:44:36.702Z,97457.80
2023-12-11T06:47:05.030Z,97459.80
2023-12-11T06:49:33.175Z,97463.40
2023-12-11T06:52:01.514Z,97467.40
2023-12-11T06:54:29.626Z,97475.20
2023-12-11T06:56:57.844Z,97483.20
2023-12-11T06:59:31.408Z,97483.20
2023-12-11T07:01:59.671Z,97479.40
2023-12-11T07:04:28.191Z,97482.80
2023-12-11T07:06:56.716Z,97486.00
2023-12-11T07:09:25.514Z,97483.60
2023-12-11T07:11:53.648Z,97485.00
2023-12-11T07:14:21.984Z,97487.00
2023-12-11T07:16:49.996Z,97484.00
2023-12-11T07:19:18.466Z,97480.60
2023-12-11T07:21:47.064Z,97471.00
2023-12-11T07:24:15.171Z,97468.40
2023-12-11T07:26:43.226Z,97461.00
2023-12-11T07:29:11.261Z,97453.20
2023-12-11T07:31:40.495Z,97449.40
2023-12-11T07:36:37.221Z,97438.40
2023-12-11T07:39:05.374Z,97447.20
2023-12-11T07:41:33.529Z,97437.00
2023-12-11T07:44:01.662Z,97437.40
2023-12-11T07:46:31.489Z,97435.20
2023-12-11T07:48:59.701Z,97439.60
2023-12-11T07:51:29.355Z,97435.60
2023-12-11T07:54:00.209Z,97445.20
2023-12-11T07:56:31.185Z,97451.40
2023-12-11T07:58:59.314Z,97448.60
2023-12-11T08:01:34.756Z,97438.60
2023-12-11T08:04:03.113Z,97437.20
2023-12-11T08:06:31.647Z,97427.60
2023-12-11T08:09:01.451Z,97432.00
2023-12-11T08:11:30.120Z,97432.80
2023-12-11T08:13:59.093Z,97438.80
2023-12-11T08:16:27.294Z,97443.60
2023-12-11T08:18:55.500Z,97454.20
2023-12-11T08:21:24.335Z,97451.60
2023-12-11T08:23:52.670Z,97442.00
2023-12-11T08:26:21.010Z,97443.40
2023-12-11T08:28:50.518Z,97435.20
2023-12-11T08:31:19.032Z,97425.20
2023-12-11T08:33:47.461Z,97421.20
2023-12-11T08:36:15.664Z,97407.40
2023-12-11T08:38:43.744Z,97395.20
2023-12-11T08:41:11.936Z,97395.20
2023-12-11T08:43:40.058Z,97397.80
2023-12-11T08:46:10.597Z,97386.80
2023-12-11T08:48:38.917Z,97366.60
2023-12-11T08:51:07.164Z,97368.40
2023-12-11T08:53:35.226Z,97363.60
2023-12-11T08:56:03.775Z,97351.00
2023-12-11T08:58:31.876Z,97347.20
2023-12-11T09:00:59.957Z,97346.20
2023-12-11T09:03:28.397Z,97346.40
2023-12-11T09:05:57.789Z,97343.40
2023-12-11T09:08:27.041Z,97336.00
2023-12-11T09:10:55.379Z,97319.00
2023-12-11T09:13:25.197Z,97304.40
2023-12-11T09:15:54.926Z,97302.60
2023-12-11T09:18:23.320Z,97300.40
2023-12-11T09:20:51.802Z,97294.20
2023-12-11T09:23:20.089Z,97282.00
2023-12-11T09:25:48.429Z,97281.20
2023-12-11T09:28:16.952Z,97273.60
2023-12-11T09:30:45.298Z,97272.20
2023-12-11T09:33:14.180Z,97270.80
2023-12-11T09:35:42.937Z,97278.20
2023-12-11T09:38:13.093Z,97284.40
2023-12-11T09:40:41.430Z,97286.80
2023-12-11T09:43:11.221Z,97289.80
2023-12-11T09:45:40.187Z,97294.60
2023-12-11T09:48:14.126Z,97276.80
2023-12-11T09:50:43.370Z,97274.80
2023-12-11T09:53:11.873Z,97282.60
2023-12-11T09:55:40.106Z,97286.00
2023-12-11T09:58:08.527Z,97286.60
2023-12-11T10:00:37.537Z,97282.40
2023-12-11T10:03:07.085Z,97272.40
2023-12-11T10:05:37.602Z,97256.00
2023-12-11T10:08:06.055Z,97261.00
2023-12-11T10:10:39.545Z,97264.60
2023-12-11T10:13:08.106Z,97262.00
2023-12-11T10:15:36.884Z,97252.20
2023-12-11T10:18:09.776Z,97250.20
2023-12-11T10:20:39.949Z,97244.00
2023-12-11T10:23:19.915Z,97248.80
2023-12-11T10:25:50.138Z,97233.00
2023-12-11T10:28:22.828Z,97224.40
2023-12-11T10:30:59.319Z,97221.00
2023-12-11T10:33:29.206Z,97223.40
2023-12-11T10:36:17.634Z,97232.20
2023-12-11T10:38:47.174Z,97228.00
2023-12-11T10:41:25.730Z,97227.60
2023-12-11T10:44:07.932Z,97211.00
2023-12-11T10:46:41.941Z,97211.00
2023-12-11T10:49:10.181Z,97206.00
2023-12-11T10:51:38.612Z,97206.80
2023-12-11T10:54:06.678Z,97195.00
2023-12-11T10:56:34.999Z,97195.80
2023-12-11T10:59:03.147Z,97186.40
2023-12-11T11:01:32.013Z,97174.40
2023-12-11T11:04:00.385Z,97167.20
2023-12-11T11:06:29.571Z,97151.00
2023-12-11T11:09:02.369Z,97151.00
2023-12-11T11:11:34.051Z,97169.40
2023-12-11T11:14:29.900Z,97164.80
2023-12-11T11:17:00.025Z,97166.20
2023-12-11T11:19:31.552Z,97158.80
2023-12-11T11:22:01.577Z,97157.60
2023-12-11T11:24:34.345Z,97153.80
2023-12-11T11:27:03.526Z,97132.60
2023-12-11T11:29:44.096Z,97128.80
2023-12-11T11:32:12.570Z,97124.60
2023-12-11T11:34:49.252Z,97123.80
2023-12-11T11:37:22.505Z,97118.00
2023-12-11T11:40:01.819Z,97111.80
2023-12-11T11:42:33.155Z,97129.60
2023-12-11T11:45:02.860Z,97141.40
2023-12-11T11:47:31.761Z,97147.00
2023-12-11T11:50:11.336Z,97141.40
2023-12-11T11:52:42.640Z,97134.80
2023-12-11T11:55:25.556Z,97133.80
2023-12-11T11:57:56.848Z,97134.80
2023-12-11T12:00:26.094Z,97141.00
2023-12-11T12:03:01.995Z,97145.00
2023-12-11T12:05:30.386Z,97155.00
2023-12-11T12:07:58.645Z,97161.60
2023-12-11T12:10:27.042Z,97156.60
2023-12-11T12:12:58.509Z,97147.00
2023-12-11T12:15:27.535Z,97147.60
2023-12-11T12:18:07.019Z,97137.40
2023-12-11T12:20:35.311Z,97132.80
2023-12-11T12:23:04.808Z,97136.00
2023-12-11T12:25:33.588Z,97140.00
2023-12-11T12:28:09.066Z,97140.60
2023-12-11T12:30:37.611Z,97137.80
2023-12-11T12:33:09.549Z,97122.40
2023-12-11T12:35:38.383Z,97119.40
2023-12-11T12:38:08.654Z,97111.00
2023-12-11T12:40:36.985Z,97105.60
2023-12-11T12:43:12.404Z,97098.80
2023-12-11T12:45:41.261Z,97094.20
2023-12-11T12:48:10.296Z,97099.00
2023-12-11T12:50:38.552Z,97091.40
2023-12-11T12:53:15.146Z,97095.60
2023-12-11T12:55:43.658Z,97092.20
2023-12-11T12:58:14.783Z,97097.40
2023-12-11T13:00:45.976Z,97098.20
2023-12-11T13:03:14.570Z,97101.00
2023-12-11T13:05:45.486Z,97102.20
2023-12-11T13:08:16.024Z,97106.20
2023-12-11T13:10:55.713Z,97109.80
2023-12-11T13:13:27.755Z,97116.00
2023-12-11T13:15:57.852Z,97121.20
2023-12-11T13:18:26.923Z,97116.20
2023-12-11T13:20:55.639Z,97113.00
2023-12-11T13:23:26.947Z,97113.00
2023-12-11T13:25:55.060Z,97115.40
2023-12-11T13:28:23.490Z,97116.80
2023-12-11T13:30:51.912Z,97122.00
2023-12-11T13:33:20.233Z,97128.20
2023-12-11T13:35:48.839Z,97126.80
2023-12-11T13:38:17.414Z,97125.40
2023-12-11T13:40:45.590Z,97134.40
2023-12-11T13:43:14.082Z,97130.60
2023-12-11T13:45:44.242Z,97140.60
2023-12-11T13:48:12.580Z,97146.60
2023-12-11T13:50:41.665Z,97146.60
2023-12-11T13:53:09.939Z,97148.00
2023-12-11T13:55:38.479Z,97142.60
2023-12-11T13:58:06.757Z,97154.40
2023-12-11T14:00:34.893Z,97157.40
2023-12-11T14:03:04.667Z,97160.40
2023-12-11T14:05:34.550Z,97160.60
2023-12-11T14:08:03.834Z,97165.20
2023-12-11T14:10:32.785Z,97166.80
2023-12-11T14:13:01.033Z,97168.00
2023-12-11T14:15:29.973Z,97167.60
2023-12-11T14:17:58.435Z,97169.40
2023-12-11T14:20:26.830Z,97174.20
2023-12-11T14:22:54.910Z,97168.40
2023-12-11T14:25:23.065Z,97166.20
2023-12-11T14:27:51.166Z,97171.40
2023-12-11T14:30:20.965Z,97160.60
2023-12-11T14:32:49.361Z,97162.00
2023-12-11T14:35:17.938Z,97162.20
2023-12-11T14:37:47.118Z,97173.40
2023-12-11T14:40:15.638Z,97171.60
2023-12-11T14:42:44.113Z,97170.80
2023-12-11T14:45:12.944Z,97176.40
2023-12-11T14:47:41.022Z,97175.00
2023-12-11T14:50:10.093Z,97182.60
2023-12-11T14:52:38.467Z,97187.20
2023-12-11T14:55:09.156Z,97190.40
2023-12-11T14:57:38.319Z,97193.20
2023-12-11T15:00:07.871Z,97192.40
2023-12-11T15:02:36.519Z,97188.20
2023-12-11T15:05:05.807Z,97193.40
2023-12-11T15:07:34.489Z,97191.80
2023-12-11T15:10:04.656Z,97179.80
2023-12-11T15:12:33.469Z,97181.40
2023-12-11T15:15:06.282Z,97180.00
2023-12-11T15:17:34.637Z,97178.80
2023-12-11T15:20:10.928Z,97183.20
2023-12-11T15:22:39.492Z,97182.40
2023-12-11T15:25:10.961Z,97179.40
2023-12-11T15:27:39.234Z,97175.00
2023-12-11T15:30:09.403Z,97168.60
2023-12-11T15:32:37.710Z,97162.00
2023-12-11T15:35:06.398Z,97162.80
2023-12-11T15:37:34.995Z,97163.00
2023-12-11T15:40:08.636Z,97153.20
2023-12-11T15:42:39.120Z,97152.20
2023-12-11T15:45:07.643Z,97153.40
2023-12-11T15:47:59.802Z,97147.60
2023-12-11T15:50:25.484Z,97145.20
2023-12-11T15:52:55.034Z,97144.00
2023-12-11T15:55:23.314Z,97140.00
2023-12-11T15:57:52.872Z,97139.00
2023-12-11T16:00:24.026Z,97131.40
2023-12-11T16:02:54.242Z,97128.40
2023-12-11T16:05:22.859Z,97133.00
2023-12-11T16:07:50.998Z,97130.80
2023-12-11T16:10:19.716Z,97130.80
2023-12-11T16:13:48.025Z,97136.60
2023-12-11T16:16:59.574Z,97151.00
2023-12-11T16:19:42.906Z,97148.80
2023-12-11T16:22:11.284Z,97152.00
2023-12-11T16:24:39.934Z,97152.20
2023-12-11T16:27:44.692Z,97137.20
2023-12-11T16:30:20.638Z,97136.60
2023-12-11T16:32:52.845Z,97131.20
2023-12-11T16:35:30.974Z,97121.60
2023-12-11T16:38:02.838Z,97115.60
2023-12-11T16:40:44.730Z,97116.40
2023-12-11T16:43:21.613Z,97113.60
2023-12-11T16:46:10.629Z,97108.00
2023-12-11T16:49:04.450Z,97088.60
2023-12-11T16:51:32.708Z,97083.40
2023-12-11T16:55:21.416Z,97076.00
2023-12-11T16:58:02.531Z,97061.80
2023-12-11T17:00:47.061Z,97065.20
2023-12-11T17:03:16.252Z,97084.00
2023-12-11T17:05:44.592Z,97079.40
2023-12-11T17:08:12.779Z,97063.00
2023-12-11T17:10:44.368Z,97054.80
2023-12-11T17:13:12.554Z,97059.40
2023-12-11T17:16:28.716Z,97045.60
2023-12-11T17:19:20.009Z,97050.80
2023-12-11T17:21:57.378Z,97053.80
2023-12-11T17:24:25.657Z,97063.60
2023-12-11T17:26:53.782Z,97075.80
2023-12-11T17:29:21.847Z,97069.80
2023-12-11T17:31:49.838Z,97067.00
2023-12-11T17:34:18.046Z,97070.20
2023-12-11T17:36:46.274Z,97066.00
2023-12-11T17:39:14.817Z,97066.20
2023-12-11T17:45:30.475Z,97073.20
2023-12-11T17:48:00.915Z,97058.20
2023-12-11T17:50:29.118Z,97041.40
2023-12-11T17:52:57.300Z,97033.00
2023-12-11T17:55:25.323Z,97016.40
2023-12-11T17:57:53.461Z,97007.80
2023-12-11T18:00:25.038Z,97018.60
2023-12-11T18:02:53.080Z,97022.40
2023-12-11T18:05:22.617Z,97019.60
2023-12-11T18:07:50.737Z,97005.00
2023-12-11T18:10:19.228Z,97000.00
2023-12-11T18:12:47.625Z,97000.40
2023-12-11T18:15:15.927Z,97002.60
2023-12-11T18:17:51.740Z,97000.00
2023-12-11T18:20:23.276Z,96998.60
2023-12-11T18:22:51.688Z,96995.40
2023-12-11T18:25:20.156Z,96991.80
2023-12-11T18:27:48.354Z,96996.60
2023-12-11T18:30:17.027Z,96992.00
2023-12-11T18:32:45.874Z,96986.40
2023-12-11T18:35:14.128Z,96997.40
2023-12-11T18:37:44.510Z,97005.80
2023-12-11T18:40:16.987Z,96997.40
2023-12-11T18:42:47.498Z,96990.00
2023-12-11T18:45:15.704Z,96998.20
2023-12-11T18:47:44.329Z,97008.00
2023-12-11T18:50:13.913Z,97010.00
2023-12-11T18:52:46.876Z,96998.20
2023-12-11T18:55:16.821Z,96997.60
2023-12-11T18:57:44.888Z,96987.20
2023-12-11T19:00:15.122Z,96972.80
2023-12-11T19:02:49.759Z,96974.40
2023-12-11T19:05:20.267Z,96968.00
2023-12-11T19:07:53.777Z,96975.80
2023-12-11T19:10:22.048Z,96978.60
2023-12-11T19:12:55.091Z,96979.80
2023-12-11T19:15:23.257Z,96983.40
2023-12-11T19:17:54.348Z,96985.40
2023-12-11T19:20:22.887Z,97007.00
2023-12-11T19:22:53.945Z,97004.80
2023-12-11T19:25:31.120Z,97012.20
2023-12-11T19:27:59.215Z,97005.80
2023-12-11T19:30:28.174Z,96982.40
2023-12-11T19:32:56.560Z,96980.80
2023-12-11T19:35:35.994Z,96993.00
2023-12-11T19:38:04.524Z,96985.60
2023-12-11T19:40:39.020Z,96985.60
2023-12-11T19:43:12.728Z,96989.00
2023-12-11T19:45:40.833Z,96989.20
2023-12-11T19:48:13.133Z,96993.00
2023-12-11T19:50:41.597Z,96987.60
2023-12-11T19:53:11.859Z,96977.20
2023-12-11T19:55:40.822Z,96971.00
2023-12-11T19:58:11.098Z,96965.00
2023-12-11T20:00:44.077Z,96974.40
2023-12-11T20:03:12.438Z,96970.20
2023-12-11T20:05:40.603Z,96969.00
2023-12-11T20:08:11.802Z,96967.20
2023-12-11T20:10:43.023Z,96977.80
2023-12-11T20:13:11.127Z,96972.20
2023-12-11T20:16:09.862Z,96977.00
2023-12-11T20:18:28.912Z,96979.20
2023-12-11T20:20:58.611Z,96976.20
2023-12-11T20:23:32.498Z,96978.40
2023-12-11T20:26:02.630Z,96976.20
2023-12-11T20:28:33.995Z,96969.80
2023-12-11T20:31:02.625Z,96964.40
2023-12-11T20:33:30.924Z,96962.80
2023-12-11T20:36:01.289Z,96969.60
2023-12-11T20:38:39.037Z,96966.60
2023-12-11T20:41:33.246Z,96963.80
2023-12-11T20:44:03.863Z,96974.80
2023-12-11T20:46:32.957Z,96980.40
2023-12-11T20:49:01.326Z,96989.80
2023-12-11T20:51:29.616Z,96981.40
2023-12-11T20:53:57.766Z,96981.40
2023-12-11T20:56:28.591Z,96982.20
2023-12-11T20:58:58.368Z,96982.20
2023-12-11T21:01:30.658Z,96981.80
2023-12-11T21:04:02.862Z,96992.40
2023-12-11T21:06:31.337Z,96984.60
2023-12-11T21:09:08.969Z,97002.20
2023-12-11T21:11:37.366Z,96993.60
2023-12-11T21:14:05.619Z,96986.40
2023-12-11T21:16:35.313Z,96989.80
2023-12-11T21:19:04.140Z,97002.60
2023-12-11T21:21:33.583Z,96989.60
2023-12-11T21:24:01.853Z,96987.60
2023-12-11T21:26:30.362Z,96961.40
2023-12-11T21:29:00.412Z,96973.60
2023-12-11T21:31:32.469Z,96975.60
2023-12-11T21:34:01.120Z,96994.20
2023-12-11T21:36:32.927Z,96993.80
2023-12-11T21:39:01.116Z,97002.80
2023-12-11T21:41:29.392Z,97005.00
2023-12-11T21:43:59.443Z,97017.00
2023-12-11T21:46:27.822Z,97023.20
2023-12-11T21:48:58.966Z,97021.20
2023-12-11T21:51:29.359Z,97024.40
2023-12-11T21:53:57.655Z,97036.40
2023-12-11T21:56:26.906Z,97043.60
2023-12-11T21:58:55.516Z,97039.60
2023-12-11T22:01:23.671Z,97032.40
2023-12-11T22:03:52.285Z,97038.40
2023-12-11T22:06:20.871Z,97038.60
2023-12-11T22:08:49.327Z,97034.60
2023-12-11T22:11:18.289Z,97038.20
2023-12-11T22:13:46.605Z,97033.40
2023-12-11T22:16:16.482Z,97036.60
2023-12-11T22:18:48.674Z,97032.40
2023-12-11T22:21:24.607Z,97028.80
2023-12-11T22:23:54.037Z,97025.60
2023-12-11T22:26:22.599Z,97014.60
2023-12-11T22:28:50.654Z,97011.40
2023-12-11T22:31:20.750Z,97015.40
2023-12-11T22:33:48.930Z,97014.00
2023-12-11T22:36:22.751Z,97012.20
2023-12-11T22:38:51.280Z,97013.80
2023-12-11T22:41:27.086Z,97017.00
2023-12-11T22:43:55.286Z,97013.80
2023-12-11T22:46:26.300Z,97016.60
2023-12-11T22:48:54.836Z,97004.60
2023-12-11T22:51:24.294Z,96998.60
2023-12-11T22:53:52.555Z,97001.80
2023-12-11T22:56:20.688Z,96997.40
2023-12-11T22:58:48.831Z,96997.60
2023-12-11T23:01:17.056Z,96999.60
2023-12-11T23:03:45.603Z,96999.20
2023-12-11T23:06:14.254Z,97001.60
2023-12-11T23:08:42.473Z,97000.80
2023-12-11T23:11:11.142Z,96998.20
2023-12-11T23:13:40.010Z,96997.80
2023-12-11T23:16:09.022Z,96999.80
2023-12-11T23:18:37.317Z,97006.80
2023-12-11T23:21:05.830Z,96997.40
2023-12-11T23:23:33.893Z,96991.60
2023-12-11T23:26:05.172Z,96992.20
2023-12-11T23:28:34.002Z,96993.40
2023-12-11T23:31:02.293Z,96989.00
2023-12-11T23:33:30.399Z,96985.80
2023-12-11T23:35:58.628Z,96986.20
2023-12-11T23:38:26.581Z,96986.00
2023-12-11T23:40:54.785Z,96991.40
2023-12-11T23:43:22.821Z,96991.40
2023-12-11T23:45:51.040Z,96982.40
2023-12-11T23:48:19.464Z,96978.20
2023-12-11T23:50:47.751Z,96979.60
2023-12-11T23:53:15.813Z,96974.60
2023-12-11T23:55:44.107Z,96972.40
2023-12-11T23:58:13.741Z,96982.80
